Latest Weather Observations for Fort Denison

IDN60901

Issued at 8:21 pm EST Monday 27 April 2015 (issued every 10 minutes, with the page automatically refreshed every 10 minutes)

About weather observations | Map of Sydney area stations | Latest observations for Sydney area | Other Formats
Station Details ID: 066022 Name: FORT DENISON Lat: -33.86 Lon: 151.23 Height: 5.0 m
Data from the previous 72 hours. | See also: Recent months for locations in New South Wales
Date/Time
EST
Tmp

°C
App
Tmp
°C
Dew
Point
°C
Rel
Hum
%
Delta-T

°C
Wind Press
QNH
hPa
Press
MSL
hPa
Rain
since
9 am
mm
Dir
 
Spd
km/h
Gust
km/h
Spd
kts
Gust
kts
27/08:00pm - - - - - S 7 11 4 6 - - -
27/07:30pm - - - - - S 9 17 5 9 - - -
27/07:00pm - - - - - SSE 11 15 6 8 - - -
27/06:30pm - - - - - SSE 13 17 7 9 - - -
27/06:00pm - - - - - S 13 19 7 10 - - -
27/05:30pm - - - - - S 11 20 6 11 - - -
27/05:00pm - - - - - S 17 28 9 15 - - -
27/04:30pm - - - - - S 19 28 10 15 - - -
27/04:00pm - - - - - SSE 22 30 12 16 - - -
27/03:30pm - - - - - S 19 35 10 19 - - -
27/03:00pm - - - - - SSE 17 30 9 16 - - -
27/02:30pm - - - - - SSE 19 28 10 15 - - -
27/02:00pm - - - - - S 19 30 10 16 - - -
27/01:30pm - - - - - SSE 19 32 10 17 - - -
27/01:00pm - - - - - S 20 33 11 18 - - -
27/12:30pm - - - - - S 19 28 10 15 - - -
27/12:00pm - - - - - S 17 30 9 16 - - -
27/11:30am - - - - - SSW 17 33 9 18 - - -
27/11:00am - - - - - SW 7 17 4 9 - - -
27/10:30am - - - - - W 19 24 10 13 - - -
27/10:00am - - - - - W 20 28 11 15 - - -
27/09:30am - - - - - W 24 32 13 17 - - -
27/09:00am - - - - - W 19 28 10 15 - - -
27/08:30am - - - - - W 19 28 10 15 - - -
27/08:00am - - - - - W 19 26 10 14 - - -
27/07:30am - - - - - W 13 19 7 10 - - -
27/07:00am - - - - - W 15 20 8 11 - - -
27/06:30am - - - - - W 17 22 9 12 - - -
27/06:00am - - - - - W 15 20 8 11 - - -
27/05:30am - - - - - WSW 19 33 10 18 - - -
27/05:00am - - - - - WSW 19 30 10 16 - - -
27/04:30am - - - - - WSW 20 28 11 15 - - -
27/04:00am - - - - - W 19 26 10 14 - - -
27/03:30am - - - - - W 15 22 8 12 - - -
27/03:00am - - - - - WSW 13 19 7 10 - - -
27/02:30am - - - - - W 11 15 6 8 - - -
27/02:00am - - - - - SW 11 22 6 12 - - -
27/01:30am - - - - - SW 11 19 6 10 - - -
27/01:00am - - - - - SSW 13 26 7 14 - - -
27/12:30am - - - - - W 13 19 7 10 - - -
27/12:00am - - - - - WNW 13 17 7 9 - - -
 
Date/Time
EST
Tmp

°C
App
Tmp
°C
Dew
Point
°C
Rel
Hum
%
Delta-T

°C
Wind Press
QNH
hPa
Press
MSL
hPa
Rain
since
9 am
mm
Dir
 
Spd
km/h
Gust
km/h
Spd
kts
Gust
kts
26/11:30pm - - - - - WNW 11 13 6 7 - - -
26/11:00pm - - - - - W 17 19 9 10 - - -
26/10:30pm - - - - - WNW 15 17 8 9 - - -
26/10:00pm - - - - - W 15 19 8 10 - - -
26/09:30pm - - - - - W 13 17 7 9 - - -
26/09:00pm - - - - - SW 13 24 7 13 - - -
26/08:30pm - - - - - SW 15 22 8 12 - - -
26/08:00pm - - - - - SSW 19 30 10 16 - - -
26/07:30pm - - - - - SSW 17 35 9 19 - - -
26/07:00pm - - - - - SSW 19 28 10 15 - - -
26/06:30pm - - - - - SSW 19 32 10 17 - - -
26/06:00pm - - - - - WSW 15 24 8 13 - - -
26/05:30pm - - - - - SSW 9 15 5 8 - - -
26/05:00pm - - - - - SW 7 19 4 10 - - -
26/04:30pm - - - - - SW 15 32 8 17 - - -
26/04:00pm - - - - - SW 19 30 10 16 - - -
26/03:30pm - - - - - SSW 28 48 15 26 - - -
26/03:00pm - - - - - SW 19 30 10 16 - - -
26/02:30pm - - - - - SW 20 35 11 19 - - -
26/02:00pm - - - - - SW 24 35 13 19 - - -
26/01:30pm - - - - - SW 22 39 12 21 - - -
26/01:00pm - - - - - SW 17 30 9 16 - - -
26/12:30pm - - - - - WSW 17 30 9 16 - - -
26/12:00pm - - - - - WSW 22 33 12 18 - - -
26/11:30am - - - - - WSW 22 30 12 16 - - -
26/11:00am - - - - - W 19 28 10 15 - - -
26/10:30am - - - - - W 20 30 11 16 - - -
26/10:00am - - - - - W 20 28 11 15 - - -
26/09:30am - - - - - W 22 30 12 16 - - -
26/09:00am - - - - - W 19 26 10 14 - - -
26/08:30am - - - - - W 19 24 10 13 - - -
26/08:00am - - - - - W 17 24 9 13 - - -
26/07:30am - - - - - W 19 24 10 13 - - -
26/07:00am - - - - - W 19 24 10 13 - - -
26/06:30am - - - - - W 15 19 8 10 - - -
26/06:00am - - - - - W 17 22 9 12 - - -
26/05:30am - - - - - W 20 28 11 15 - - -
26/05:00am - - - - - W 20 28 11 15 - - -
26/04:30am - - - - - WNW 15 22 8 12 - - -
26/04:00am - - - - - WNW 11 17 6 9 - - -
26/03:30am - - - - - W 22 30 12 16 - - -
26/03:00am - - - - - SSW 17 24 9 13 - - -
26/02:30am - - - - - SSW 19 26 10 14 - - -
26/02:00am - - - - - WNW 20 26 11 14 - - -
26/01:30am - - - - - WNW 22 41 12 22 - - -
26/01:00am - - - - - W 19 26 10 14 - - -
26/12:30am - - - - - WNW 20 30 11 16 - - -
26/12:00am - - - - - W 17 20 9 11 - - -
 
Date/Time
EST
Tmp

°C
App
Tmp
°C
Dew
Point
°C
Rel
Hum
%
Delta-T

°C
Wind Press
QNH
hPa
Press
MSL
hPa
Rain
since
9 am
mm
Dir
 
Spd
km/h
Gust
km/h
Spd
kts
Gust
kts
25/11:30pm - - - - - WNW 17 22 9 12 - - -
25/11:00pm - - - - - WSW 9 13 5 7 - - -
25/10:30pm - - - - - SSW 11 17 6 9 - - -
25/10:00pm - - - - - SE 15 22 8 12 - - -
25/09:30pm - - - - - SSW 19 26 10 14 - - -
25/09:00pm - - - - - SSW 20 28 11 15 - - -
25/08:30pm - - - - - SSW 15 22 8 12 - - -
25/08:00pm - - - - - SSW 17 28 9 15 - - -
25/07:30pm - - - - - SW 6 11 3 6 - - -
25/07:00pm - - - - - W 7 15 4 8 - - -
25/06:30pm - - - - - E 7 11 4 6 - - -
25/06:00pm - - - - - E 7 13 4 7 - - -
25/05:30pm - - - - - E 17 32 9 17 - - -
25/05:15pm - - - - - SE 11 24 6 13 - - -
25/05:00pm - - - - - SW 35 57 19 31 - - -
25/04:58pm - - - - - WSW 32 57 17 31 - - -
25/04:56pm - - - - - WSW 28 56 15 30 - - -
25/04:53pm - - - - - SW 30 56 16 30 - - -
25/04:52pm - - - - - SW 30 56 16 30 - - -
25/04:41pm - - - - - SSE 17 54 9 29 - - -
25/04:30pm - - - - - E 22 30 12 16 - - -
25/04:00pm - - - - - E 19 22 10 12 - - -
25/03:30pm - - - - - ENE 20 24 11 13 - - -
25/03:00pm - - - - - ENE 19 20 10 11 - - -
25/02:30pm - - - - - ENE 17 20 9 11 - - -
25/02:00pm - - - - - ENE 17 20 9 11 - - -
25/01:30pm - - - - - ENE 19 19 10 10 - - -
25/01:00pm - - - - - ENE 11 13 6 7 - - -
25/12:30pm - - - - - E 11 11 6 6 - - -
25/12:00pm - - - - - ENE 6 9 3 5 - - -
25/11:30am - - - - - SW 2 6 1 3 - - -
25/11:00am - - - - - W 9 11 5 6 - - -
25/10:30am - - - - - W 7 9 4 5 - - -
25/10:00am - - - - - W 11 15 6 8 - - -
25/09:30am - - - - - W 17 22 9 12 - - -
25/09:00am - - - - - W 17 20 9 11 - - -
25/08:30am - - - - - WNW 15 19 8 10 - - -
25/08:00am - - - - - WNW 13 15 7 8 - - -
25/07:30am - - - - - W 11 13 6 7 - - -
25/07:00am - - - - - WNW 13 15 7 8 - - -
25/06:30am - - - - - W 15 17 8 9 - - -
25/06:00am - - - - - W 13 17 7 9 - - -
25/05:30am - - - - - W 15 17 8 9 - - -
25/05:00am - - - - - WNW 13 13 7 7 - - -
25/04:30am - - - - - W 15 19 8 10 - - -
25/04:00am - - - - - WNW 13 15 7 8 - - -
25/03:30am - - - - - W 13 15 7 8 - - -
25/03:00am - - - - - W 11 11 6 6 - - -
25/02:30am - - - - - W 11 11 6 6 - - -
25/02:00am - - - - - W 13 15 7 8 - - -
25/01:30am - - - - - W 13 15 7 8 - - -
25/01:00am - - - - - WNW 11 13 6 7 - - -
25/12:30am - - - - - W 11 11 6 6 - - -
25/12:00am - - - - - W 11 15 6 8 - - -
 
Date/Time
EST
Tmp

°C
App
Tmp
°C
Dew
Point
°C
Rel
Hum
%
Delta-T

°C
Wind Press
QNH
hPa
Press
MSL
hPa
Rain
since
9 am
mm
Dir
 
Spd
km/h
Gust
km/h
Spd
kts
Gust
kts
24/11:30pm - - - - - W 11 11 6 6 - - -
24/11:00pm - - - - - W 9 11 5 6 - - -
24/10:30pm - - - - - W 9 11 5 6 - - -
24/10:00pm - - - - - WNW 9 11 5 6 - - -
24/09:30pm - - - - - W 9 11 5 6 - - -
24/09:00pm - - - - - WNW 9 11 5 6 - - -
24/08:30pm - - - - - W 7 7 4 4 - - -

Latest Capital City Observations: Canberra | Sydney | Melbourne | Brisbane | Adelaide | Perth | Hobart | Darwin

Other Formats:

Comma delimited format used in spreadsheet applications
http://www.bom.gov.au/fwo/IDN60901/IDN60901.94769.axf

JavaScript Object Notation format (JSON) in row-major order
http://www.bom.gov.au/fwo/IDN60901/IDN60901.94769.json